createdAt,value
2023-02-11T00:05:01.853Z,20
2023-02-11T00:11:01.177Z,21
2023-02-11T00:17:02.861Z,20
2023-02-11T00:23:02.150Z,21
2023-02-11T00:29:01.432Z,20
2023-02-11T00:35:02.142Z,22
2023-02-11T00:41:01.930Z,23
2023-02-11T00:47:02.877Z,21
2023-02-11T00:53:01.556Z,21
2023-02-11T00:59:02.226Z,22
2023-02-11T01:05:02.550Z,22
2023-02-11T01:11:01.153Z,23
2023-02-11T01:17:02.169Z,21
2023-02-11T01:23:01.804Z,22
2023-02-11T01:29:01.563Z,23
2023-02-11T01:35:01.880Z,21
2023-02-11T01:41:02.142Z,21
2023-02-11T01:47:01.923Z,21
2023-02-11T01:53:01.731Z,22
2023-02-11T01:59:01.249Z,21
2023-02-11T02:05:07.793Z,21
2023-02-11T02:11:11.638Z,21
2023-02-11T02:17:08.813Z,23
2023-02-11T02:29:01.199Z,21
2023-02-11T02:38:11.319Z,21
2023-02-11T02:44:08.183Z,21
2023-02-11T02:50:19.382Z,22
2023-02-11T02:59:03.535Z,22
2023-02-11T03:11:11.869Z,22
2023-02-11T03:17:13.232Z,23
2023-02-11T03:23:20.515Z,23
2023-02-11T03:29:12.834Z,23
2023-02-11T03:35:08.386Z,23
2023-02-11T03:41:06.944Z,22
2023-02-11T03:47:16.525Z,21
2023-02-11T03:53:10.190Z,21
2023-02-11T03:59:18.674Z,23
2023-02-11T04:05:21.084Z,23
2023-02-11T04:11:19.917Z,21
2023-02-11T04:17:27.078Z,20
2023-02-11T04:23:14.582Z,23
2023-02-11T04:29:24.863Z,24
2023-02-11T06:29:30.629Z,24
2023-02-11T09:11:30.363Z,24
2023-02-11T09:17:18.806Z,24
2023-02-11T09:23:06.445Z,24
2023-02-11T09:29:28.305Z,18
2023-02-11T09:35:09.348Z,20
2023-02-11T09:41:32.458Z,20
2023-02-11T09:47:13.077Z,19
2023-02-11T09:53:05.756Z,19
2023-02-11T09:59:17.355Z,20
2023-02-11T10:05:06.244Z,20
2023-02-11T10:11:02.046Z,20
2023-02-11T10:17:00.995Z,20
2023-02-11T10:23:02.887Z,20
2023-02-11T10:29:06.667Z,20
2023-02-11T10:35:04.922Z,20
2023-02-11T10:41:19.722Z,20
2023-02-11T10:47:13.911Z,19
2023-02-11T10:53:16.388Z,18
2023-02-11T10:59:10.920Z,18
2023-02-11T11:05:05.553Z,18
2023-02-11T11:11:09.897Z,18
2023-02-11T11:17:01.824Z,18
2023-02-11T11:23:13.002Z,17
2023-02-11T11:29:16.249Z,17
2023-02-11T11:35:02.877Z,17
2023-02-11T11:41:06.188Z,17
2023-02-11T11:47:02.644Z,17
2023-02-11T11:53:02.046Z,17
2023-02-11T11:59:13.392Z,17
2023-02-11T12:08:01.088Z,17
2023-02-11T12:26:01.901Z,18
2023-02-11T12:32:01.250Z,18
2023-02-11T12:47:01.462Z,18
2023-02-11T12:53:01.062Z,18
2023-02-11T12:59:01.360Z,18
2023-02-11T13:05:01.224Z,19
2023-02-11T13:11:02.529Z,19
2023-02-11T13:17:01.614Z,19
2023-02-11T13:23:01.265Z,20
2023-02-11T13:29:01.695Z,20
2023-02-11T13:35:01.558Z,20
2023-02-11T13:41:01.829Z,23
2023-02-11T13:47:01.714Z,20
2023-02-11T13:53:03.339Z,20
2023-02-11T13:59:02.345Z,19
2023-02-11T14:05:01.728Z,20
2023-02-11T14:11:01.384Z,20
2023-02-11T14:17:02.061Z,21
2023-02-11T14:23:01.389Z,21
2023-02-11T14:29:01.703Z,19
2023-02-11T14:35:03.343Z,20
2023-02-11T14:41:01.289Z,20
2023-02-11T14:47:01.628Z,20
2023-02-11T14:53:01.924Z,21
2023-02-11T14:59:01.398Z,20
2023-02-11T15:05:02.118Z,19
2023-02-11T15:11:02.224Z,21
2023-02-11T15:17:03.346Z,20
2023-02-11T15:23:01.530Z,19
2023-02-11T15:29:02.439Z,20
2023-02-11T15:35:02.568Z,19
2023-02-11T15:41:01.741Z,19
2023-02-11T15:47:01.286Z,22
2023-02-11T15:53:01.947Z,20
2023-02-11T15:59:01.490Z,20
2023-02-11T16:05:02.672Z,19
2023-02-11T16:11:02.111Z,22
2023-02-11T16:17:01.678Z,19
2023-02-11T16:23:01.429Z,20
2023-02-11T16:29:01.927Z,19
2023-02-11T16:35:02.795Z,21
2023-02-11T16:41:02.300Z,20
2023-02-11T16:47:02.394Z,19
2023-02-11T16:53:02.055Z,21
2023-02-11T16:59:02.437Z,20
2023-02-11T17:05:03.755Z,20
2023-02-11T17:11:01.897Z,20
2023-02-11T17:17:01.917Z,22
2023-02-11T17:23:02.192Z,21
2023-02-11T17:29:01.497Z,22
2023-02-11T17:35:02.701Z,24
2023-02-11T17:41:02.060Z,23
2023-02-11T17:47:01.744Z,23
2023-02-11T17:53:01.723Z,20
2023-02-11T17:59:02.196Z,20
2023-02-11T18:05:02.749Z,23
2023-02-11T18:11:02.219Z,23
2023-02-11T18:17:02.882Z,23
2023-02-11T18:23:02.202Z,24
2023-02-11T18:29:01.910Z,24
2023-02-11T18:35:03.448Z,26
2023-02-11T18:41:02.361Z,24
2023-02-11T18:47:01.970Z,26
2023-02-11T18:53:01.611Z,25
2023-02-11T18:59:02.000Z,23
2023-02-11T19:05:04.432Z,25
2023-02-11T19:11:01.880Z,23
2023-02-11T19:17:02.636Z,21
2023-02-11T19:23:03.219Z,21
2023-02-11T19:29:02.743Z,20
2023-02-11T19:35:03.376Z,22
2023-02-11T19:41:01.536Z,20
2023-02-11T19:47:02.228Z,23
2023-02-11T19:53:02.245Z,24
2023-02-11T19:59:02.587Z,24
2023-02-11T20:05:03.373Z,24
2023-02-11T20:11:01.724Z,25
2023-02-11T20:17:02.240Z,26
2023-02-11T20:23:02.263Z,28
2023-02-11T20:29:02.604Z,29
2023-02-11T20:35:02.877Z,29
2023-02-11T20:41:02.022Z,27
2023-02-11T20:47:01.577Z,29
2023-02-11T20:53:02.376Z,28
2023-02-11T20:59:02.624Z,29
2023-02-11T21:05:03.254Z,27
2023-02-11T21:11:02.923Z,27
2023-02-11T21:17:02.124Z,26
2023-02-11T21:23:02.546Z,26
2023-02-11T21:29:01.841Z,26
2023-02-11T21:35:03.150Z,25
2023-02-11T21:41:02.174Z,27
2023-02-11T21:47:02.423Z,26
2023-02-11T21:53:03.461Z,28
2023-02-11T21:59:02.020Z,30
2023-02-11T22:05:03.720Z,29
2023-02-11T22:11:01.955Z,27
2023-02-11T22:17:02.061Z,29
2023-02-11T22:23:03.052Z,30
2023-02-11T22:29:02.271Z,30
2023-02-11T22:35:03.100Z,31
2023-02-11T22:41:01.636Z,28
2023-02-11T22:47:01.716Z,31
2023-02-11T22:53:02.810Z,30
2023-02-11T22:59:01.950Z,32
2023-02-11T23:05:04.358Z,30
2023-02-11T23:11:02.338Z,30
2023-02-11T23:17:02.351Z,30
2023-02-11T23:23:02.447Z,32
2023-02-11T23:29:02.561Z,32
2023-02-11T23:35:03.043Z,32
2023-02-11T23:41:02.905Z,32
2023-02-11T23:47:02.333Z,32
2023-02-11T23:53:02.085Z,32
2023-02-11T23:59:02.772Z,32
